sensor_id;sensor_type;location;lat;lon;timestamp;temperature;humidity
4453;DHT22;2239;48.152;11.584;2023-07-31T00:02:13;18.40;99.50
4453;DHT22;2239;48.152;11.584;2023-07-31T00:04:38;18.30;99.60
4453;DHT22;2239;48.152;11.584;2023-07-31T00:07:04;18.30;99.50
4453;DHT22;2239;48.152;11.584;2023-07-31T00:09:32;18.20;99.90
4453;DHT22;2239;48.152;11.584;2023-07-31T00:11:58;18.20;99.90
4453;DHT22;2239;48.152;11.584;2023-07-31T00:14:23;18.20;99.90
4453;DHT22;2239;48.152;11.584;2023-07-31T00:16:49;18.20;99.90
4453;DHT22;2239;48.152;11.584;2023-07-31T00:19:14;18.10;99.90
4453;DHT22;2239;48.152;11.584;2023-07-31T00:21:40;18.00;99.90
4453;DHT22;2239;48.152;11.584;2023-07-31T00:24:06;18.00;99.90
4453;DHT22;2239;48.152;11.584;2023-07-31T00:26:31;17.90;99.90
4453;DHT22;2239;48.152;11.584;2023-07-31T00:28:57;18.00;99.90
4453;DHT22;2239;48.152;11.584;2023-07-31T00:31:22;18.00;99.90
4453;DHT22;2239;48.152;11.584;2023-07-31T00:33:48;18.00;99.90
4453;DHT22;2239;48.152;11.584;2023-07-31T00:36:13;18.00;99.90
4453;DHT22;2239;48.152;11.584;2023-07-31T00:38:39;18.00;99.90
4453;DHT22;2239;48.152;11.584;2023-07-31T00:41:04;18.00;99.90
4453;DHT22;2239;48.152;11.584;2023-07-31T00:43:30;18.00;99.90
4453;DHT22;2239;48.152;11.584;2023-07-31T00:45:56;18.00;99.90
4453;DHT22;2239;48.152;11.584;2023-07-31T00:48:21;18.00;99.90
4453;DHT22;2239;48.152;11.584;2023-07-31T00:50:47;18.00;99.90
4453;DHT22;2239;48.152;11.584;2023-07-31T00:53:13;18.00;99.90
4453;DHT22;2239;48.152;11.584;2023-07-31T00:55:39;17.90;99.90
4453;DHT22;2239;48.152;11.584;2023-07-31T00:58:05;17.90;99.90
4453;DHT22;2239;48.152;11.584;2023-07-31T01:00:30;17.80;99.90
4453;DHT22;2239;48.152;11.584;2023-07-31T01:02:56;17.70;99.90
4453;DHT22;2239;48.152;11.584;2023-07-31T01:05:33;17.60;99.90
4453;DHT22;2239;48.152;11.584;2023-07-31T01:08:15;17.60;99.90
4453;DHT22;2239;48.152;11.584;2023-07-31T01:10:51;17.50;99.90
4453;DHT22;2239;48.152;11.584;2023-07-31T01:13:19;17.50;99.90
4453;DHT22;2239;48.152;11.584;2023-07-31T01:15:45;17.50;99.90
4453;DHT22;2239;48.152;11.584;2023-07-31T01:18:10;17.50;99.90
4453;DHT22;2239;48.152;11.584;2023-07-31T01:20:37;17.60;99.90
4453;DHT22;2239;48.152;11.584;2023-07-31T01:26:17;17.60;99.90
4453;DHT22;2239;48.152;11.584;2023-07-31T01:29:00;17.60;99.90
4453;DHT22;2239;48.152;11.584;2023-07-31T01:31:29;17.60;99.90
4453;DHT22;2239;48.152;11.584;2023-07-31T01:33:57;17.60;99.90
4453;DHT22;2239;48.152;11.584;2023-07-31T01:36:23;17.60;99.90
4453;DHT22;2239;48.152;11.584;2023-07-31T01:38:49;17.70;99.90
4453;DHT22;2239;48.152;11.584;2023-07-31T01:41:17;17.70;99.90
4453;DHT22;2239;48.152;11.584;2023-07-31T01:43:43;17.70;99.90
4453;DHT22;2239;48.152;11.584;2023-07-31T01:46:08;17.60;99.90
4453;DHT22;2239;48.152;11.584;2023-07-31T01:48:34;17.60;99.90
4453;DHT22;2239;48.152;11.584;2023-07-31T01:51:02;17.60;99.90
4453;DHT22;2239;48.152;11.584;2023-07-31T01:53:30;17.50;99.90
4453;DHT22;2239;48.152;11.584;2023-07-31T01:55:55;17.40;99.90
4453;DHT22;2239;48.152;11.584;2023-07-31T01:58:21;17.50;99.90
4453;DHT22;2239;48.152;11.584;2023-07-31T02:00:46;17.50;99.90
4453;DHT22;2239;48.152;11.584;2023-07-31T02:03:12;17.50;99.90
4453;DHT22;2239;48.152;11.584;2023-07-31T02:05:44;17.50;99.90
4453;DHT22;2239;48.152;11.584;2023-07-31T02:08:10;17.60;99.90
4453;DHT22;2239;48.152;11.584;2023-07-31T02:10:35;17.50;99.90
4453;DHT22;2239;48.152;11.584;2023-07-31T02:13:01;17.50;99.90
4453;DHT22;2239;48.152;11.584;2023-07-31T02:15:32;17.60;99.90
4453;DHT22;2239;48.152;11.584;2023-07-31T02:17:58;17.50;99.90
4453;DHT22;2239;48.152;11.584;2023-07-31T02:20:23;17.50;99.90
4453;DHT22;2239;48.152;11.584;2023-07-31T02:22:49;17.50;99.90
4453;DHT22;2239;48.152;11.584;2023-07-31T02:25:14;17.40;99.90
4453;DHT22;2239;48.152;11.584;2023-07-31T02:27:40;17.40;99.90
4453;DHT22;2239;48.152;11.584;2023-07-31T02:30:06;17.40;99.90
4453;DHT22;2239;48.152;11.584;2023-07-31T02:32:32;17.40;99.90
4453;DHT22;2239;48.152;11.584;2023-07-31T02:34:57;17.50;99.90
4453;DHT22;2239;48.152;11.584;2023-07-31T02:37:23;17.50;99.90
4453;DHT22;2239;48.152;11.584;2023-07-31T02:39:48;17.50;99.90
4453;DHT22;2239;48.152;11.584;2023-07-31T02:42:14;17.50;99.90
4453;DHT22;2239;48.152;11.584;2023-07-31T02:44:40;17.50;99.90
4453;DHT22;2239;48.152;11.584;2023-07-31T02:47:06;17.50;99.90
4453;DHT22;2239;48.152;11.584;2023-07-31T02:49:31;17.50;99.90
4453;DHT22;2239;48.152;11.584;2023-07-31T02:51:57;17.50;99.90
4453;DHT22;2239;48.152;11.584;2023-07-31T02:54:23;17.50;99.90
4453;DHT22;2239;48.152;11.584;2023-07-31T02:56:48;17.50;99.90
4453;DHT22;2239;48.152;11.584;2023-07-31T02:59:14;17.50;99.90
4453;DHT22;2239;48.152;11.584;2023-07-31T03:01:40;17.40;99.90
4453;DHT22;2239;48.152;11.584;2023-07-31T03:04:05;17.40;99.90
4453;DHT22;2239;48.152;11.584;2023-07-31T03:06:31;17.30;99.90
4453;DHT22;2239;48.152;11.584;2023-07-31T03:08:56;17.20;99.90
4453;DHT22;2239;48.152;11.584;2023-07-31T03:11:22;17.20;99.90
4453;DHT22;2239;48.152;11.584;2023-07-31T03:13:47;17.10;99.90
4453;DHT22;2239;48.152;11.584;2023-07-31T03:16:13;17.10;99.90
4453;DHT22;2239;48.152;11.584;2023-07-31T03:18:39;17.00;99.90
4453;DHT22;2239;48.152;11.584;2023-07-31T03:21:04;17.10;99.90
4453;DHT22;2239;48.152;11.584;2023-07-31T03:23:30;17.00;99.90
4453;DHT22;2239;48.152;11.584;2023-07-31T03:25:59;16.90;99.90
4453;DHT22;2239;48.152;11.584;2023-07-31T03:28:25;16.90;99.90
4453;DHT22;2239;48.152;11.584;2023-07-31T03:30:51;16.90;99.90
4453;DHT22;2239;48.152;11.584;2023-07-31T03:33:17;16.80;99.90
4453;DHT22;2239;48.152;11.584;2023-07-31T03:35:43;16.80;99.90
4453;DHT22;2239;48.152;11.584;2023-07-31T03:38:08;16.80;99.90
4453;DHT22;2239;48.152;11.584;2023-07-31T03:40:34;16.80;99.90
4453;DHT22;2239;48.152;11.584;2023-07-31T03:42:59;16.80;99.90
4453;DHT22;2239;48.152;11.584;2023-07-31T03:45:25;16.80;99.90
4453;DHT22;2239;48.152;11.584;2023-07-31T03:47:51;16.80;99.90
4453;DHT22;2239;48.152;11.584;2023-07-31T03:50:17;16.70;99.90
4453;DHT22;2239;48.152;11.584;2023-07-31T03:52:42;16.70;99.90
4453;DHT22;2239;48.152;11.584;2023-07-31T03:55:08;16.80;99.90
4453;DHT22;2239;48.152;11.584;2023-07-31T03:57:33;16.70;99.90
4453;DHT22;2239;48.152;11.584;2023-07-31T03:59:59;16.70;99.90
4453;DHT22;2239;48.152;11.584;2023-07-31T04:02:25;16.70;99.90
4453;DHT22;2239;48.152;11.584;2023-07-31T04:04:50;16.70;99.90
4453;DHT22;2239;48.152;11.584;2023-07-31T04:07:16;16.70;99.90
4453;DHT22;2239;48.152;11.584;2023-07-31T04:09:41;16.70;99.90
4453;DHT22;2239;48.152;11.584;2023-07-31T04:12:07;16.70;99.90
4453;DHT22;2239;48.152;11.584;2023-07-31T04:14:33;16.70;99.90
4453;DHT22;2239;48.152;11.584;2023-07-31T04:16:58;16.70;99.90
4453;DHT22;2239;48.152;11.584;2023-07-31T04:19:24;16.70;99.90
4453;DHT22;2239;48.152;11.584;2023-07-31T04:21:50;16.70;99.90
4453;DHT22;2239;48.152;11.584;2023-07-31T04:24:15;16.70;99.90
4453;DHT22;2239;48.152;11.584;2023-07-31T04:26:41;16.60;99.90
4453;DHT22;2239;48.152;11.584;2023-07-31T04:29:06;16.70;99.90
4453;DHT22;2239;48.152;11.584;2023-07-31T04:31:33;16.60;99.90
4453;DHT22;2239;48.152;11.584;2023-07-31T04:33:59;16.60;99.90
4453;DHT22;2239;48.152;11.584;2023-07-31T04:36:25;16.60;99.90
4453;DHT22;2239;48.152;11.584;2023-07-31T04:38:50;16.70;99.90
4453;DHT22;2239;48.152;11.584;2023-07-31T04:41:16;16.70;99.90
4453;DHT22;2239;48.152;11.584;2023-07-31T04:43:41;16.60;99.90
4453;DHT22;2239;48.152;11.584;2023-07-31T04:46:07;16.60;99.90
4453;DHT22;2239;48.152;11.584;2023-07-31T04:48:32;16.60;99.90
4453;DHT22;2239;48.152;11.584;2023-07-31T04:50:58;16.60;99.90
4453;DHT22;2239;48.152;11.584;2023-07-31T04:53:23;16.60;99.90
4453;DHT22;2239;48.152;11.584;2023-07-31T04:55:49;16.60;99.90
4453;DHT22;2239;48.152;11.584;2023-07-31T04:58:14;16.60;99.90
4453;DHT22;2239;48.152;11.584;2023-07-31T05:00:40;16.70;99.90
4453;DHT22;2239;48.152;11.584;2023-07-31T05:03:05;16.70;99.90
4453;DHT22;2239;48.152;11.584;2023-07-31T05:05:32;16.70;99.90
4453;DHT22;2239;48.152;11.584;2023-07-31T05:07:57;16.70;99.90
4453;DHT22;2239;48.152;11.584;2023-07-31T05:10:23;16.80;99.90
4453;DHT22;2239;48.152;11.584;2023-07-31T05:12:49;16.90;99.90
4453;DHT22;2239;48.152;11.584;2023-07-31T05:15:14;17.00;99.90
4453;DHT22;2239;48.152;11.584;2023-07-31T05:17:40;17.00;99.90
4453;DHT22;2239;48.152;11.584;2023-07-31T05:20:06;17.20;99.90
4453;DHT22;2239;48.152;11.584;2023-07-31T05:22:32;17.40;99.90
4453;DHT22;2239;48.152;11.584;2023-07-31T05:24:57;17.50;99.90
4453;DHT22;2239;48.152;11.584;2023-07-31T05:27:23;17.70;99.90
4453;DHT22;2239;48.152;11.584;2023-07-31T05:29:48;17.80;99.90
4453;DHT22;2239;48.152;11.584;2023-07-31T05:32:14;17.90;99.90
4453;DHT22;2239;48.152;11.584;2023-07-31T05:34:40;18.00;99.90
4453;DHT22;2239;48.152;11.584;2023-07-31T05:37:05;18.20;99.90
4453;DHT22;2239;48.152;11.584;2023-07-31T05:39:31;18.30;99.90
4453;DHT22;2239;48.152;11.584;2023-07-31T05:41:57;18.40;99.90
4453;DHT22;2239;48.152;11.584;2023-07-31T05:44:22;18.50;99.90
4453;DHT22;2239;48.152;11.584;2023-07-31T05:46:48;18.70;99.90
4453;DHT22;2239;48.152;11.584;2023-07-31T05:49:13;18.80;99.90
4453;DHT22;2239;48.152;11.584;2023-07-31T05:51:39;19.00;99.90
4453;DHT22;2239;48.152;11.584;2023-07-31T05:54:04;19.00;99.90
4453;DHT22;2239;48.152;11.584;2023-07-31T05:56:30;19.10;99.90
4453;DHT22;2239;48.152;11.584;2023-07-31T05:58:56;19.10;99.90
4453;DHT22;2239;48.152;11.584;2023-07-31T06:01:22;19.20;99.90
4453;DHT22;2239;48.152;11.584;2023-07-31T06:03:48;19.20;99.90
4453;DHT22;2239;48.152;11.584;2023-07-31T06:06:13;19.30;99.90
4453;DHT22;2239;48.152;11.584;2023-07-31T06:08:39;19.30;99.90
4453;DHT22;2239;48.152;11.584;2023-07-31T06:11:05;19.40;99.90
4453;DHT22;2239;48.152;11.584;2023-07-31T06:13:31;19.50;99.90
4453;DHT22;2239;48.152;11.584;2023-07-31T06:15:57;19.60;99.90
4453;DHT22;2239;48.152;11.584;2023-07-31T06:18:22;19.70;99.90
4453;DHT22;2239;48.152;11.584;2023-07-31T06:20:48;19.90;99.90
4453;DHT22;2239;48.152;11.584;2023-07-31T06:23:19;19.80;99.90
4453;DHT22;2239;48.152;11.584;2023-07-31T06:25:44;19.80;99.90
4453;DHT22;2239;48.152;11.584;2023-07-31T06:28:10;19.80;99.90
4453;DHT22;2239;48.152;11.584;2023-07-31T06:30:35;19.80;99.90
4453;DHT22;2239;48.152;11.584;2023-07-31T06:33:01;19.90;99.90
4453;DHT22;2239;48.152;11.584;2023-07-31T06:35:27;20.10;99.90
4453;DHT22;2239;48.152;11.584;2023-07-31T06:37:52;20.10;99.90
4453;DHT22;2239;48.152;11.584;2023-07-31T06:40:19;20.20;99.90
4453;DHT22;2239;48.152;11.584;2023-07-31T06:42:45;20.00;99.90
4453;DHT22;2239;48.152;11.584;2023-07-31T06:45:11;20.00;99.90
4453;DHT22;2239;48.152;11.584;2023-07-31T06:47:36;19.90;99.90
4453;DHT22;2239;48.152;11.584;2023-07-31T06:50:02;19.90;99.90
4453;DHT22;2239;48.152;11.584;2023-07-31T06:52:28;19.90;99.90
4453;DHT22;2239;48.152;11.584;2023-07-31T06:55:01;20.10;99.90
4453;DHT22;2239;48.152;11.584;2023-07-31T06:57:28;20.10;99.90
4453;DHT22;2239;48.152;11.584;2023-07-31T06:59:54;20.10;99.90
4453;DHT22;2239;48.152;11.584;2023-07-31T07:02:19;20.20;99.90
4453;DHT22;2239;48.152;11.584;2023-07-31T07:04:45;20.30;99.80
4453;DHT22;2239;48.152;11.584;2023-07-31T07:07:11;20.40;99.70
4453;DHT22;2239;48.152;11.584;2023-07-31T07:09:37;20.50;99.70
4453;DHT22;2239;48.152;11.584;2023-07-31T07:12:02;20.60;99.60
4453;DHT22;2239;48.152;11.584;2023-07-31T07:14:28;20.60;99.10
4453;DHT22;2239;48.152;11.584;2023-07-31T07:16:54;20.60;99.00
4453;DHT22;2239;48.152;11.584;2023-07-31T07:19:19;20.70;99.00
4453;DHT22;2239;48.152;11.584;2023-07-31T07:21:45;20.70;98.80
4453;DHT22;2239;48.152;11.584;2023-07-31T07:24:10;20.70;98.40
4453;DHT22;2239;48.152;11.584;2023-07-31T07:26:36;20.70;98.60
4453;DHT22;2239;48.152;11.584;2023-07-31T07:29:01;20.70;98.60
4453;DHT22;2239;48.152;11.584;2023-07-31T07:31:28;20.70;98.60
4453;DHT22;2239;48.152;11.584;2023-07-31T07:33:53;20.80;98.70
4453;DHT22;2239;48.152;11.584;2023-07-31T07:36:19;20.90;98.40
4453;DHT22;2239;48.152;11.584;2023-07-31T07:38:45;21.10;98.00
4453;DHT22;2239;48.152;11.584;2023-07-31T07:41:10;21.20;97.80
4453;DHT22;2239;48.152;11.584;2023-07-31T07:43:36;21.40;97.40
4453;DHT22;2239;48.152;11.584;2023-07-31T07:46:01;21.60;97.10
4453;DHT22;2239;48.152;11.584;2023-07-31T07:48:27;21.90;96.90
4453;DHT22;2239;48.152;11.584;2023-07-31T07:50:53;22.00;96.70
4453;DHT22;2239;48.152;11.584;2023-07-31T07:53:18;21.90;96.10
4453;DHT22;2239;48.152;11.584;2023-07-31T07:55:44;22.00;95.80
4453;DHT22;2239;48.152;11.584;2023-07-31T07:58:09;22.10;95.80
4453;DHT22;2239;48.152;11.584;2023-07-31T08:00:35;22.20;95.50
4453;DHT22;2239;48.152;11.584;2023-07-31T08:03:00;22.20;95.30
4453;DHT22;2239;48.152;11.584;2023-07-31T08:05:26;22.30;95.00
4453;DHT22;2239;48.152;11.584;2023-07-31T08:07:51;22.40;95.30
4453;DHT22;2239;48.152;11.584;2023-07-31T08:10:21;22.60;95.00
4453;DHT22;2239;48.152;11.584;2023-07-31T08:12:47;22.90;94.60
4453;DHT22;2239;48.152;11.584;2023-07-31T08:15:12;22.90;94.10
4453;DHT22;2239;48.152;11.584;2023-07-31T08:17:38;22.80;93.70
4453;DHT22;2239;48.152;11.584;2023-07-31T08:20:04;23.00;93.90
4453;DHT22;2239;48.152;11.584;2023-07-31T08:22:30;23.00;93.60
4453;DHT22;2239;48.152;11.584;2023-07-31T08:24:56;23.30;93.70
4453;DHT22;2239;48.152;11.584;2023-07-31T08:27:22;23.40;93.10
4453;DHT22;2239;48.152;11.584;2023-07-31T08:29:47;23.60;92.80
4453;DHT22;2239;48.152;11.584;2023-07-31T08:32:13;23.40;91.50
4453;DHT22;2239;48.152;11.584;2023-07-31T08:34:38;23.30;92.60
4453;DHT22;2239;48.152;11.584;2023-07-31T08:37:04;23.10;91.80
4453;DHT22;2239;48.152;11.584;2023-07-31T08:39:29;23.00;92.40
4453;DHT22;2239;48.152;11.584;2023-07-31T08:41:59;22.90;92.10
4453;DHT22;2239;48.152;11.584;2023-07-31T08:44:25;22.80;92.50
4453;DHT22;2239;48.152;11.584;2023-07-31T08:46:51;22.70;92.50
4453;DHT22;2239;48.152;11.584;2023-07-31T08:49:18;22.60;92.80
4453;DHT22;2239;48.152;11.584;2023-07-31T08:51:46;22.60;93.20
4453;DHT22;2239;48.152;11.584;2023-07-31T08:54:14;22.50;92.60
4453;DHT22;2239;48.152;11.584;2023-07-31T08:56:40;22.50;92.90
4453;DHT22;2239;48.152;11.584;2023-07-31T08:59:06;22.50;92.90
4453;DHT22;2239;48.152;11.584;2023-07-31T09:01:35;22.50;92.80
4453;DHT22;2239;48.152;11.584;2023-07-31T09:04:01;22.40;93.00
4453;DHT22;2239;48.152;11.584;2023-07-31T09:06:30;22.50;93.30
4453;DHT22;2239;48.152;11.584;2023-07-31T09:08:56;22.50;93.30
4453;DHT22;2239;48.152;11.584;2023-07-31T09:11:21;22.60;93.20
4453;DHT22;2239;48.152;11.584;2023-07-31T09:13:49;22.70;92.90
4453;DHT22;2239;48.152;11.584;2023-07-31T09:16:15;23.10;92.60
4453;DHT22;2239;48.152;11.584;2023-07-31T09:18:54;23.60;91.60
4453;DHT22;2239;48.152;11.584;2023-07-31T09:21:20;23.80;91.20
4453;DHT22;2239;48.152;11.584;2023-07-31T09:23:47;24.00;90.70
4453;DHT22;2239;48.152;11.584;2023-07-31T09:26:49;23.90;90.70
4453;DHT22;2239;48.152;11.584;2023-07-31T09:29:19;23.90;90.30
4453;DHT22;2239;48.152;11.584;2023-07-31T09:31:45;23.90;90.90
4453;DHT22;2239;48.152;11.584;2023-07-31T09:34:11;23.90;90.60
4453;DHT22;2239;48.152;11.584;2023-07-31T09:36:44;24.00;90.60
4453;DHT22;2239;48.152;11.584;2023-07-31T09:39:11;24.20;90.30
4453;DHT22;2239;48.152;11.584;2023-07-31T09:41:42;24.10;89.40
4453;DHT22;2239;48.152;11.584;2023-07-31T09:44:08;24.30;89.90
4453;DHT22;2239;48.152;11.584;2023-07-31T09:46:37;24.20;89.00
4453;DHT22;2239;48.152;11.584;2023-07-31T09:49:10;24.20;88.90
4453;DHT22;2239;48.152;11.584;2023-07-31T09:51:41;24.30;88.20
4453;DHT22;2239;48.152;11.584;2023-07-31T09:54:15;24.40;89.50
4453;DHT22;2239;48.152;11.584;2023-07-31T09:56:47;24.60;88.70
4453;DHT22;2239;48.152;11.584;2023-07-31T09:59:18;25.00;87.60
4453;DHT22;2239;48.152;11.584;2023-07-31T10:01:45;25.60;85.90
4453;DHT22;2239;48.152;11.584;2023-07-31T10:04:12;25.60;83.70
4453;DHT22;2239;48.152;11.584;2023-07-31T10:06:40;25.80;84.20
4453;DHT22;2239;48.152;11.584;2023-07-31T10:09:10;26.00;82.80
4453;DHT22;2239;48.152;11.584;2023-07-31T10:11:47;26.20;82.20
4453;DHT22;2239;48.152;11.584;2023-07-31T10:14:18;26.50;82.10
4453;DHT22;2239;48.152;11.584;2023-07-31T10:16:45;26.60;80.00
4453;DHT22;2239;48.152;11.584;2023-07-31T10:19:10;26.40;79.00
4453;DHT22;2239;48.152;11.584;2023-07-31T10:21:37;26.00;78.90
4453;DHT22;2239;48.152;11.584;2023-07-31T10:24:04;25.80;80.70
4453;DHT22;2239;48.152;11.584;2023-07-31T10:26:31;25.80;80.80
4453;DHT22;2239;48.152;11.584;2023-07-31T10:28:58;25.70;78.50
4453;DHT22;2239;48.152;11.584;2023-07-31T10:31:24;25.80;78.80
4453;DHT22;2239;48.152;11.584;2023-07-31T10:33:52;25.80;77.50
4453;DHT22;2239;48.152;11.584;2023-07-31T10:36:19;25.30;77.90
4453;DHT22;2239;48.152;11.584;2023-07-31T10:38:46;24.90;79.40
4453;DHT22;2239;48.152;11.584;2023-07-31T10:41:13;24.90;80.10
4453;DHT22;2239;48.152;11.584;2023-07-31T10:43:39;25.10;81.00
4453;DHT22;2239;48.152;11.584;2023-07-31T10:46:12;25.40;79.10
4453;DHT22;2239;48.152;11.584;2023-07-31T10:48:39;25.60;79.20
4453;DHT22;2239;48.152;11.584;2023-07-31T10:51:08;25.80;79.00
4453;DHT22;2239;48.152;11.584;2023-07-31T10:53:41;25.50;76.80
4453;DHT22;2239;48.152;11.584;2023-07-31T10:56:10;25.00;78.30
4453;DHT22;2239;48.152;11.584;2023-07-31T10:58:45;24.50;79.30
4453;DHT22;2239;48.152;11.584;2023-07-31T11:01:11;24.40;81.30
4453;DHT22;2239;48.152;11.584;2023-07-31T11:03:45;24.50;81.40
4453;DHT22;2239;48.152;11.584;2023-07-31T11:06:11;24.90;80.80
4453;DHT22;2239;48.152;11.584;2023-07-31T11:08:49;25.30;78.50
4453;DHT22;2239;48.152;11.584;2023-07-31T11:11:17;25.60;77.50
4453;DHT22;2239;48.152;11.584;2023-07-31T11:13:53;26.00;76.00
4453;DHT22;2239;48.152;11.584;2023-07-31T11:16:20;26.00;75.70
4453;DHT22;2239;48.152;11.584;2023-07-31T11:18:47;26.30;75.70
4453;DHT22;2239;48.152;11.584;2023-07-31T11:21:18;26.50;74.80
4453;DHT22;2239;48.152;11.584;2023-07-31T11:23:49;26.20;73.90
4453;DHT22;2239;48.152;11.584;2023-07-31T11:26:16;26.40;74.60
4453;DHT22;2239;48.152;11.584;2023-07-31T11:28:42;26.50;74.30
4453;DHT22;2239;48.152;11.584;2023-07-31T11:31:10;26.80;72.90
4453;DHT22;2239;48.152;11.584;2023-07-31T11:33:36;26.90;72.50
4453;DHT22;2239;48.152;11.584;2023-07-31T11:36:02;27.00;70.50
4453;DHT22;2239;48.152;11.584;2023-07-31T11:38:29;26.80;68.30
4453;DHT22;2239;48.152;11.584;2023-07-31T11:40:57;26.80;68.10
4453;DHT22;2239;48.152;11.584;2023-07-31T11:43:23;26.40;68.90
4453;DHT22;2239;48.152;11.584;2023-07-31T11:45:56;26.20;69.90
4453;DHT22;2239;48.152;11.584;2023-07-31T11:48:27;26.20;70.50
4453;DHT22;2239;48.152;11.584;2023-07-31T11:51:01;26.30;71.20
4453;DHT22;2239;48.152;11.584;2023-07-31T11:53:45;26.20;70.70
4453;DHT22;2239;48.152;11.584;2023-07-31T11:56:16;26.30;70.50
4453;DHT22;2239;48.152;11.584;2023-07-31T11:58:43;26.40;70.10
4453;DHT22;2239;48.152;11.584;2023-07-31T12:01:09;26.60;70.00
4453;DHT22;2239;48.152;11.584;2023-07-31T12:03:35;26.40;69.80
4453;DHT22;2239;48.152;11.584;2023-07-31T12:06:01;26.60;70.70
4453;DHT22;2239;48.152;11.584;2023-07-31T12:08:27;26.70;69.60
4453;DHT22;2239;48.152;11.584;2023-07-31T12:10:54;26.80;69.10
4453;DHT22;2239;48.152;11.584;2023-07-31T12:13:24;27.00;68.30
4453;DHT22;2239;48.152;11.584;2023-07-31T12:15:59;26.80;66.30
4453;DHT22;2239;48.152;11.584;2023-07-31T12:18:26;26.90;67.70
4453;DHT22;2239;48.152;11.584;2023-07-31T12:20:57;27.10;67.80
4453;DHT22;2239;48.152;11.584;2023-07-31T12:23:25;27.40;65.10
4453;DHT22;2239;48.152;11.584;2023-07-31T12:26:12;27.60;64.10
4453;DHT22;2239;48.152;11.584;2023-07-31T12:28:41;27.50;63.50
4453;DHT22;2239;48.152;11.584;2023-07-31T12:31:13;27.40;63.70
4453;DHT22;2239;48.152;11.584;2023-07-31T12:33:40;27.70;62.40
4453;DHT22;2239;48.152;11.584;2023-07-31T12:36:28;27.60;60.30
4453;DHT22;2239;48.152;11.584;2023-07-31T12:38:55;27.40;62.00
4453;DHT22;2239;48.152;11.584;2023-07-31T12:41:23;27.70;62.90
4453;DHT22;2239;48.152;11.584;2023-07-31T12:43:48;27.70;62.40
4453;DHT22;2239;48.152;11.584;2023-07-31T12:46:14;27.50;62.20
4453;DHT22;2239;48.152;11.584;2023-07-31T12:48:40;27.40;62.70
4453;DHT22;2239;48.152;11.584;2023-07-31T12:51:06;27.30;61.90
4453;DHT22;2239;48.152;11.584;2023-07-31T12:53:32;27.60;62.10
4453;DHT22;2239;48.152;11.584;2023-07-31T12:55:58;27.30;62.70
4453;DHT22;2239;48.152;11.584;2023-07-31T12:58:24;27.10;62.00
4453;DHT22;2239;48.152;11.584;2023-07-31T13:00:50;27.30;63.90
4453;DHT22;2239;48.152;11.584;2023-07-31T13:03:15;27.40;61.80
4453;DHT22;2239;48.152;11.584;2023-07-31T13:05:41;27.50;62.50
4453;DHT22;2239;48.152;11.584;2023-07-31T13:08:06;27.40;62.70
4453;DHT22;2239;48.152;11.584;2023-07-31T13:10:32;27.50;63.90
4453;DHT22;2239;48.152;11.584;2023-07-31T13:12:58;27.50;64.00
4453;DHT22;2239;48.152;11.584;2023-07-31T13:15:23;27.40;64.40
4453;DHT22;2239;48.152;11.584;2023-07-31T13:17:49;27.60;64.20
4453;DHT22;2239;48.152;11.584;2023-07-31T13:20:15;27.60;63.90
4453;DHT22;2239;48.152;11.584;2023-07-31T13:22:40;28.00;63.70
4453;DHT22;2239;48.152;11.584;2023-07-31T13:25:06;28.20;62.40
4453;DHT22;2239;48.152;11.584;2023-07-31T13:27:32;28.00;62.80
4453;DHT22;2239;48.152;11.584;2023-07-31T13:29:57;28.00;62.10
4453;DHT22;2239;48.152;11.584;2023-07-31T13:32:23;27.80;62.90
4453;DHT22;2239;48.152;11.584;2023-07-31T13:34:50;27.60;61.30
4453;DHT22;2239;48.152;11.584;2023-07-31T13:37:15;27.70;61.20
4453;DHT22;2239;48.152;11.584;2023-07-31T13:39:42;27.90;61.70
4453;DHT22;2239;48.152;11.584;2023-07-31T13:42:08;27.80;59.90
4453;DHT22;2239;48.152;11.584;2023-07-31T13:44:43;27.50;59.40
4453;DHT22;2239;48.152;11.584;2023-07-31T13:47:09;27.00;60.80
4453;DHT22;2239;48.152;11.584;2023-07-31T13:49:35;26.80;61.70
4453;DHT22;2239;48.152;11.584;2023-07-31T13:52:01;26.80;61.90
4453;DHT22;2239;48.152;11.584;2023-07-31T13:54:26;27.00;62.10
4453;DHT22;2239;48.152;11.584;2023-07-31T13:56:53;27.10;62.40
4453;DHT22;2239;48.152;11.584;2023-07-31T13:59:18;27.10;62.70
4453;DHT22;2239;48.152;11.584;2023-07-31T14:01:44;27.30;63.00
4453;DHT22;2239;48.152;11.584;2023-07-31T14:04:10;27.30;62.70
4453;DHT22;2239;48.152;11.584;2023-07-31T14:06:36;27.40;63.10
4453;DHT22;2239;48.152;11.584;2023-07-31T14:09:02;27.50;63.60
4453;DHT22;2239;48.152;11.584;2023-07-31T14:11:28;27.70;63.10
4453;DHT22;2239;48.152;11.584;2023-07-31T14:13:53;27.60;62.40
4453;DHT22;2239;48.152;11.584;2023-07-31T14:16:19;27.40;62.70
4453;DHT22;2239;48.152;11.584;2023-07-31T14:18:45;27.30;60.70
4453;DHT22;2239;48.152;11.584;2023-07-31T14:21:12;27.20;59.50
4453;DHT22;2239;48.152;11.584;2023-07-31T14:23:38;27.20;60.30
4453;DHT22;2239;48.152;11.584;2023-07-31T14:26:03;27.20;59.90
4453;DHT22;2239;48.152;11.584;2023-07-31T14:28:29;27.30;61.10
4453;DHT22;2239;48.152;11.584;2023-07-31T14:30:55;27.20;61.90
4453;DHT22;2239;48.152;11.584;2023-07-31T14:33:20;27.00;61.40
4453;DHT22;2239;48.152;11.584;2023-07-31T14:35:46;26.90;62.40
4453;DHT22;2239;48.152;11.584;2023-07-31T14:38:11;27.00;62.90
4453;DHT22;2239;48.152;11.584;2023-07-31T14:40:37;27.30;63.80
4453;DHT22;2239;48.152;11.584;2023-07-31T14:43:04;27.50;61.80
4453;DHT22;2239;48.152;11.584;2023-07-31T14:45:29;27.70;60.20
4453;DHT22;2239;48.152;11.584;2023-07-31T14:47:55;27.70;59.00
4453;DHT22;2239;48.152;11.584;2023-07-31T14:50:21;27.50;59.00
4453;DHT22;2239;48.152;11.584;2023-07-31T14:52:48;27.50;59.60
4453;DHT22;2239;48.152;11.584;2023-07-31T14:55:14;27.50;59.60
4453;DHT22;2239;48.152;11.584;2023-07-31T14:57:39;27.60;60.10
4453;DHT22;2239;48.152;11.584;2023-07-31T15:00:06;27.50;60.10
4453;DHT22;2239;48.152;11.584;2023-07-31T15:02:34;27.50;60.90
4453;DHT22;2239;48.152;11.584;2023-07-31T15:05:00;27.30;61.20
4453;DHT22;2239;48.152;11.584;2023-07-31T15:07:25;27.20;61.40
4453;DHT22;2239;48.152;11.584;2023-07-31T15:09:51;27.00;62.00
4453;DHT22;2239;48.152;11.584;2023-07-31T15:12:17;27.00;62.30
4453;DHT22;2239;48.152;11.584;2023-07-31T15:14:42;26.80;62.00
4453;DHT22;2239;48.152;11.584;2023-07-31T15:17:08;26.80;62.90
4453;DHT22;2239;48.152;11.584;2023-07-31T15:19:34;26.80;61.80
4453;DHT22;2239;48.152;11.584;2023-07-31T15:22:01;26.80;62.70
4453;DHT22;2239;48.152;11.584;2023-07-31T15:24:26;26.60;62.80
4453;DHT22;2239;48.152;11.584;2023-07-31T15:26:52;26.60;64.00
4453;DHT22;2239;48.152;11.584;2023-07-31T15:29:18;26.50;64.30
4453;DHT22;2239;48.152;11.584;2023-07-31T15:31:45;26.40;63.80
4453;DHT22;2239;48.152;11.584;2023-07-31T15:34:12;26.30;64.60
4453;DHT22;2239;48.152;11.584;2023-07-31T15:36:38;26.30;66.10
4453;DHT22;2239;48.152;11.584;2023-07-31T15:39:04;26.20;65.60
4453;DHT22;2239;48.152;11.584;2023-07-31T15:41:29;26.20;66.60
4453;DHT22;2239;48.152;11.584;2023-07-31T15:43:55;26.10;66.80
4453;DHT22;2239;48.152;11.584;2023-07-31T15:46:21;26.00;67.00